createdAt,value
2018-08-22T00:00:03.429Z,24.10
2018-08-22T00:02:34.444Z,24.10
2018-08-22T00:05:03.853Z,24.10
2018-08-22T00:07:37.674Z,24.10
2018-08-22T00:10:07.357Z,24.10
2018-08-22T00:12:41.303Z,24.10
2018-08-22T00:15:10.675Z,24.10
2018-08-22T00:17:43.866Z,24.10
2018-08-22T00:20:13.262Z,24.10
2018-08-22T00:22:42.606Z,24.10
2018-08-22T00:25:15.624Z,24.10
2018-08-22T00:27:44.969Z,24.10
2018-08-22T00:30:14.765Z,24.00
2018-08-22T00:32:44.118Z,24.00
2018-08-22T00:35:22.814Z,24.00
2018-08-22T00:37:52.137Z,24.00
2018-08-22T00:40:25.301Z,24.00
2018-08-22T00:42:54.726Z,24.00
2018-08-22T00:45:28.198Z,24.00
2018-08-22T00:47:57.622Z,24.00
2018-08-22T00:53:00.573Z,24.00
2018-08-22T00:55:29.936Z,24.00
2018-08-22T00:58:03.137Z,24.00
2018-08-22T01:00:32.564Z,24.00
2018-08-22T01:03:04.293Z,23.90
2018-08-22T01:05:33.647Z,23.90
2018-08-22T01:08:03.006Z,23.90
2018-08-22T01:10:34.138Z,23.90
2018-08-22T01:13:03.589Z,23.90
2018-08-22T01:15:37.091Z,23.90
2018-08-22T01:18:06.445Z,23.90
2018-08-22T01:20:40.501Z,23.90
2018-08-22T01:23:09.865Z,23.90
2018-08-22T01:28:12.693Z,23.90
2018-08-22T01:30:42.129Z,23.90
2018-08-22T01:33:13.093Z,23.90
2018-08-22T01:35:42.425Z,23.90
2018-08-22T01:38:16.149Z,23.90
2018-08-22T01:40:45.524Z,23.90
2018-08-22T01:45:48.358Z,23.90
2018-08-22T01:48:17.702Z,23.80
2018-08-22T01:50:48.102Z,23.80
2018-08-22T01:53:17.811Z,23.80
2018-08-22T01:55:51.329Z,23.80
2018-08-22T01:58:20.693Z,23.80
2018-08-22T02:00:50.025Z,23.80
2018-08-22T02:03:23.677Z,23.80
2018-08-22T02:05:53.021Z,23.80
2018-08-22T02:08:29.838Z,23.80
2018-08-22T02:10:59.175Z,23.80
2018-08-22T02:13:30.929Z,23.80
2018-08-22T02:16:00.281Z,23.80
2018-08-22T02:18:33.441Z,23.80
2018-08-22T02:21:02.810Z,23.80
2018-08-22T02:23:35.798Z,23.80
2018-08-22T02:26:05.149Z,23.80
2018-08-22T02:28:34.605Z,23.80
2018-08-22T02:31:07.493Z,23.80
2018-08-22T02:33:36.876Z,23.80
2018-08-22T02:36:10.741Z,23.80
2018-08-22T02:38:40.097Z,23.80
2018-08-22T02:41:13.902Z,23.80
2018-08-22T02:43:43.324Z,23.80
2018-08-22T02:46:16.977Z,23.80
2018-08-22T02:48:51.569Z,23.80
2018-08-22T02:51:20.980Z,23.70
2018-08-22T02:53:50.393Z,23.70
2018-08-22T02:56:21.077Z,23.70
2018-08-22T02:58:50.728Z,23.70
2018-08-22T03:01:20.315Z,23.70
2018-08-22T03:03:53.514Z,23.70
2018-08-22T03:06:22.887Z,23.70
2018-08-22T03:08:55.590Z,23.70
2018-08-22T03:11:24.930Z,23.70
2018-08-22T03:13:54.348Z,23.70
2018-08-22T03:16:27.357Z,23.70
2018-08-22T03:19:02.657Z,23.70
2018-08-22T03:21:31.999Z,23.70
2018-08-22T03:24:01.390Z,23.70
2018-08-22T03:26:34.073Z,23.70
2018-08-22T03:29:03.425Z,23.70
2018-08-22T03:31:36.727Z,23.70
2018-08-22T03:34:06.139Z,23.70
2018-08-22T03:39:09.724Z,23.70
2018-08-22T03:44:12.773Z,23.70
2018-08-22T03:46:42.105Z,23.70
2018-08-22T03:49:13.641Z,23.70
2018-08-22T03:51:42.978Z,23.70
2018-08-22T03:54:16.941Z,23.70
2018-08-22T03:56:46.305Z,23.70
2018-08-22T04:01:49.089Z,23.70
2018-08-22T04:04:18.511Z,23.70
2018-08-22T04:06:51.800Z,23.70
2018-08-22T04:09:21.139Z,23.70
2018-08-22T04:11:54.979Z,23.70
2018-08-22T04:14:24.369Z,23.60
2018-08-22T04:16:57.234Z,23.60
2018-08-22T04:19:26.603Z,23.60
2018-08-22T04:21:55.965Z,23.60
2018-08-22T04:24:26.350Z,23.60
2018-08-22T04:26:55.686Z,23.60
2018-08-22T04:29:29.462Z,23.60
2018-08-22T04:31:58.796Z,23.60
2018-08-22T04:34:32.075Z,23.60
2018-08-22T04:37:01.445Z,23.60
2018-08-22T04:39:30.882Z,23.60
2018-08-22T04:42:02.719Z,23.60
2018-08-22T04:44:32.101Z,23.60
2018-08-22T04:47:05.901Z,23.60
2018-08-22T04:49:35.264Z,23.60
2018-08-22T04:52:09.066Z,23.60
2018-08-22T04:54:38.461Z,23.60
2018-08-22T04:57:07.902Z,23.60
2018-08-22T04:59:38.868Z,23.60
2018-08-22T05:02:08.198Z,23.60
2018-08-22T05:04:42.982Z,23.60
2018-08-22T05:07:12.321Z,23.60
2018-08-22T05:09:46.432Z,23.60
2018-08-22T05:12:15.893Z,23.60
2018-08-22T05:14:49.801Z,23.60
2018-08-22T05:17:19.140Z,23.60
2018-08-22T05:19:52.822Z,23.60
2018-08-22T05:22:22.165Z,23.60
2018-08-22T05:24:52.121Z,23.60
2018-08-22T05:27:22.233Z,23.60
2018-08-22T05:29:51.645Z,23.60
2018-08-22T05:32:26.407Z,23.50
2018-08-22T05:34:55.814Z,23.50
2018-08-22T05:37:28.848Z,23.60
2018-08-22T05:39:58.217Z,23.60
2018-08-22T05:42:32.005Z,23.60
2018-08-22T05:45:01.418Z,23.50
2018-08-22T05:47:32.525Z,23.60
2018-08-22T05:50:03.665Z,23.60
2018-08-22T05:52:32.993Z,23.50
2018-08-22T05:55:06.841Z,23.60
2018-08-22T05:57:36.491Z,23.50
2018-08-22T06:00:08.257Z,23.50
2018-08-22T06:02:37.582Z,23.50
2018-08-22T06:05:07.447Z,23.50
2018-08-22T06:07:40.324Z,23.50
2018-08-22T06:10:09.684Z,23.50
2018-08-22T06:12:42.938Z,23.50
2018-08-22T06:15:12.336Z,23.50
2018-08-22T06:18:48.969Z,23.60
2018-08-22T06:21:18.341Z,23.60
2018-08-22T06:23:48.117Z,23.60
2018-08-22T06:26:18.900Z,23.60
2018-08-22T06:28:48.324Z,23.60
2018-08-22T06:31:22.267Z,23.60
2018-08-22T06:33:51.590Z,23.60
2018-08-22T06:36:25.477Z,23.50
2018-08-22T06:38:54.853Z,23.60
2018-08-22T06:41:28.389Z,23.60
2018-08-22T06:43:57.729Z,23.60
2018-08-22T06:49:00.545Z,23.70
2018-08-22T06:51:30.234Z,23.60
2018-08-22T06:53:59.582Z,23.70
2018-08-22T06:56:29.001Z,23.70
2018-08-22T06:58:58.354Z,23.70
2018-08-22T07:01:31.417Z,23.70
2018-08-22T07:04:00.761Z,23.70
2018-08-22T07:06:34.791Z,23.70
2018-08-22T07:09:06.290Z,23.70
2018-08-22T07:11:38.462Z,23.70
2018-08-22T07:14:08.277Z,23.80
2018-08-22T07:16:40.475Z,23.70
2018-08-22T07:19:09.813Z,23.80
2018-08-22T07:21:39.214Z,23.80
2018-08-22T07:24:10.154Z,23.80
2018-08-22T07:26:39.542Z,23.80
2018-08-22T07:29:08.953Z,23.90
2018-08-22T07:31:38.697Z,23.80
2018-08-22T07:34:08.062Z,23.90
2018-08-22T07:36:42.106Z,23.90
2018-08-22T07:39:13.109Z,23.90
2018-08-22T07:41:46.934Z,23.90
2018-08-22T07:44:16.269Z,24.00
2018-08-22T07:46:46.846Z,24.00
2018-08-22T07:49:16.218Z,24.00
2018-08-22T07:51:45.545Z,24.10
2018-08-22T07:54:17.438Z,24.10
2018-08-22T07:56:46.821Z,24.10
2018-08-22T07:59:21.540Z,24.10
2018-08-22T08:01:51.067Z,24.10
2018-08-22T08:04:24.812Z,24.20
2018-08-22T08:06:54.257Z,24.20
2018-08-22T08:09:25.767Z,24.30
2018-08-22T08:11:55.141Z,24.30
2018-08-22T08:14:24.482Z,24.30
2018-08-22T08:16:58.434Z,24.30
2018-08-22T08:19:27.763Z,24.40
2018-08-22T08:21:57.518Z,24.40
2018-08-22T08:24:26.901Z,24.50
2018-08-22T08:26:56.394Z,24.50
2018-08-22T08:29:31.105Z,24.50
2018-08-22T08:32:00.470Z,24.50
2018-08-22T08:34:34.299Z,24.60
2018-08-22T08:37:03.694Z,24.60
2018-08-22T08:39:33.512Z,24.60
2018-08-22T08:42:02.858Z,24.70
2018-08-22T08:44:32.241Z,24.70
2018-08-22T08:47:01.629Z,24.80
2018-08-22T08:49:31.041Z,24.80
2018-08-22T08:52:01.650Z,24.80
2018-08-22T08:54:34.834Z,24.80
2018-08-22T08:57:04.350Z,24.90
2018-08-22T08:59:38.131Z,24.90
2018-08-22T09:02:07.498Z,24.90
2018-08-22T09:04:40.503Z,25.00
2018-08-22T09:07:09.891Z,24.90
2018-08-22T09:12:12.712Z,25.00
2018-08-22T09:14:42.071Z,25.10
2018-08-22T09:17:13.975Z,25.00
2018-08-22T09:19:43.410Z,25.10
2018-08-22T09:22:14.671Z,25.10
2018-08-22T09:24:44.866Z,25.20
2018-08-22T09:27:14.256Z,25.20
2018-08-22T09:29:46.274Z,25.20
2018-08-22T09:32:15.625Z,25.20
2018-08-22T09:34:48.537Z,25.20
2018-08-22T09:37:17.916Z,25.30
2018-08-22T09:39:47.294Z,25.30
2018-08-22T09:42:18.386Z,25.30
2018-08-22T09:44:47.725Z,25.40
2018-08-22T09:47:17.155Z,25.40
2018-08-22T09:49:46.512Z,25.50
2018-08-22T09:52:15.861Z,25.50
2018-08-22T09:54:58.497Z,25.50
2018-08-22T09:57:31.912Z,25.60
2018-08-22T10:00:01.352Z,25.60
2018-08-22T10:02:35.178Z,25.60
2018-08-22T10:05:04.583Z,25.60
2018-08-22T10:07:37.855Z,25.70
2018-08-22T10:10:07.205Z,25.70
2018-08-22T10:12:40.287Z,25.70
2018-08-22T10:15:09.653Z,25.60
2018-08-22T10:17:39.298Z,25.60
2018-08-22T10:20:09.557Z,25.70
2018-08-22T10:22:38.893Z,25.70
2018-08-22T10:25:12.921Z,25.70
2018-08-22T10:27:42.402Z,25.80
2018-08-22T10:30:13.274Z,25.80
2018-08-22T10:32:42.979Z,25.80
2018-08-22T10:35:12.291Z,25.70
2018-08-22T10:37:42.581Z,25.70
2018-08-22T10:40:11.919Z,25.60
2018-08-22T10:42:41.249Z,25.60
2018-08-22T10:45:14.350Z,25.60
2018-08-22T10:47:43.797Z,25.60
2018-08-22T10:50:17.626Z,25.60
2018-08-22T10:52:46.957Z,25.70
2018-08-22T10:55:16.294Z,25.80
2018-08-22T10:57:45.682Z,25.80
2018-08-22T11:00:15.026Z,25.80
2018-08-22T11:02:44.918Z,25.70
2018-08-22T11:05:14.294Z,25.80
2018-08-22T11:07:43.729Z,25.80
2018-08-22T11:10:17.529Z,25.90
2018-08-22T11:12:47.145Z,25.90
2018-08-22T11:15:21.717Z,25.90
2018-08-22T11:17:51.122Z,25.80
2018-08-22T11:20:24.842Z,25.90
2018-08-22T11:23:11.406Z,25.90
2018-08-22T11:26:01.525Z,25.80
2018-08-22T11:28:48.016Z,25.80
2018-08-22T11:31:34.201Z,25.70
2018-08-22T11:34:20.809Z,25.70
2018-08-22T11:37:05.497Z,25.70
2018-08-22T11:39:35.050Z,25.70
2018-08-22T11:42:04.861Z,25.70
2018-08-22T11:44:34.241Z,25.80
2018-08-22T11:47:03.606Z,25.80
2018-08-22T11:49:33.299Z,25.80
2018-08-22T11:52:03.371Z,25.80
2018-08-22T11:54:36.308Z,25.90
2018-08-22T11:57:05.670Z,25.90
2018-08-22T11:59:38.805Z,25.90
2018-08-22T12:02:08.230Z,25.90
2018-08-22T12:04:44.715Z,25.90
2018-08-22T12:07:14.042Z,25.90
2018-08-22T12:09:46.998Z,25.90
2018-08-22T12:12:16.342Z,25.90
2018-08-22T12:14:46.097Z,25.90
2018-08-22T12:17:15.495Z,25.90
2018-08-22T12:19:44.854Z,25.90
2018-08-22T12:22:15.402Z,25.90
2018-08-22T12:24:44.753Z,25.90
2018-08-22T12:27:14.114Z,25.90
2018-08-22T12:29:46.322Z,25.90
2018-08-22T12:32:15.646Z,25.90
2018-08-22T12:34:45.378Z,25.90
2018-08-22T12:37:14.845Z,25.90
2018-08-22T12:39:44.253Z,26.00
2018-08-22T12:42:14.166Z,25.90
2018-08-22T12:44:43.771Z,25.90
2018-08-22T12:47:13.110Z,25.90
2018-08-22T12:49:45.539Z,25.90
2018-08-22T12:52:14.947Z,26.00
2018-08-22T12:54:48.398Z,25.90
2018-08-22T12:57:17.875Z,25.90
2018-08-22T12:59:47.347Z,26.00
2018-08-22T13:02:16.742Z,26.00
2018-08-22T13:04:46.167Z,25.90
2018-08-22T13:07:15.454Z,25.90
2018-08-22T13:09:44.853Z,25.90
2018-08-22T13:12:14.186Z,26.00
2018-08-22T13:14:43.832Z,26.00
2018-08-22T13:17:13.594Z,26.00
2018-08-22T13:19:42.971Z,26.00
2018-08-22T13:22:12.293Z,26.00
2018-08-22T13:24:41.706Z,26.00
2018-08-22T13:27:11.013Z,26.00
2018-08-22T13:29:44.886Z,26.00
2018-08-22T13:32:14.209Z,26.00
2018-08-22T13:34:47.511Z,26.00
2018-08-22T13:37:16.878Z,26.00
2018-08-22T13:39:46.330Z,26.00
2018-08-22T13:42:17.127Z,26.00
2018-08-22T13:44:46.504Z,26.00
2018-08-22T13:47:16.251Z,26.00
2018-08-22T13:49:45.638Z,26.00
2018-08-22T13:52:14.968Z,26.00
2018-08-22T13:54:44.949Z,26.00
2018-08-22T13:57:14.314Z,26.00
2018-08-22T13:59:43.710Z,26.00
2018-08-22T14:02:13.090Z,26.00
2018-08-22T14:04:42.744Z,26.00
2018-08-22T14:07:12.073Z,26.00
2018-08-22T14:09:41.822Z,26.00
2018-08-22T14:12:11.182Z,26.00
2018-08-22T14:14:40.518Z,26.00
2018-08-22T14:17:14.546Z,26.00
2018-08-22T14:19:43.870Z,25.90
2018-08-22T14:22:14.433Z,25.90
2018-08-22T14:24:43.762Z,26.00
2018-08-22T14:27:13.108Z,26.00
2018-08-22T14:29:46.191Z,26.00
2018-08-22T14:32:15.585Z,26.00
2018-08-22T14:34:44.917Z,26.00
2018-08-22T14:37:15.065Z,26.00
2018-08-22T14:39:44.397Z,26.00
2018-08-22T14:42:14.958Z,26.00
2018-08-22T14:44:44.286Z,25.90
2018-08-22T14:47:13.625Z,26.00
2018-08-22T14:49:43.684Z,25.90
2018-08-22T14:52:13.070Z,25.90
2018-08-22T14:54:42.389Z,25.90
2018-08-22T14:57:11.713Z,25.90
2018-08-22T14:59:41.067Z,25.90
2018-08-22T15:02:10.426Z,25.90
2018-08-22T15:04:43.256Z,25.90
2018-08-22T15:07:12.591Z,25.90
2018-08-22T15:09:43.865Z,25.90
2018-08-22T15:12:13.245Z,25.90
2018-08-22T15:14:42.578Z,25.90
2018-08-22T15:17:11.954Z,25.90
2018-08-22T15:19:41.313Z,25.90
2018-08-22T15:22:10.977Z,25.80
2018-08-22T15:24:42.137Z,25.80
2018-08-22T15:27:11.479Z,25.90
2018-08-22T15:29:41.433Z,25.90
2018-08-22T15:32:10.817Z,25.90
2018-08-22T15:34:55.022Z,25.80
2018-08-22T15:37:26.613Z,25.90
2018-08-22T15:39:55.936Z,25.80
2018-08-22T15:42:25.345Z,25.80
2018-08-22T15:44:54.945Z,25.80
2018-08-22T15:47:24.369Z,25.80
2018-08-22T15:49:53.658Z,25.80
2018-08-22T15:52:24.886Z,25.80
2018-08-22T15:55:09.794Z,25.80
2018-08-22T15:57:58.234Z,25.80
2018-08-22T16:00:38.996Z,25.80
2018-08-22T16:03:09.352Z,25.80
2018-08-22T16:05:39.770Z,25.70
2018-08-22T16:08:11.337Z,25.80
2018-08-22T16:10:40.670Z,25.80
2018-08-22T16:13:17.274Z,25.80
2018-08-22T16:15:49.053Z,25.70
2018-08-22T16:18:18.474Z,25.70
2018-08-22T16:20:56.335Z,25.70
2018-08-22T16:23:29.569Z,25.70
2018-08-22T16:26:06.305Z,25.70
2018-08-22T16:28:51.701Z,25.70
2018-08-22T16:31:21.961Z,25.70
2018-08-22T16:33:51.332Z,25.70
2018-08-22T16:36:25.031Z,25.70
2018-08-22T16:38:54.513Z,25.70
2018-08-22T16:41:27.870Z,25.70
2018-08-22T16:43:57.252Z,25.70
2018-08-22T16:46:26.582Z,25.60
2018-08-22T16:48:57.113Z,25.60
2018-08-22T16:51:26.475Z,25.60
2018-08-22T16:54:04.884Z,25.60
2018-08-22T16:56:34.990Z,25.60
2018-08-22T16:59:09.509Z,25.60
2018-08-22T17:01:45.769Z,25.60
2018-08-22T17:04:15.298Z,25.60
2018-08-22T17:06:47.097Z,25.60
2018-08-22T17:09:16.466Z,25.60
2018-08-22T17:11:45.799Z,25.60
2018-08-22T17:14:16.902Z,25.60
2018-08-22T17:16:46.230Z,25.60
2018-08-22T17:21:48.989Z,25.60
2018-08-22T17:24:18.405Z,25.60
2018-08-22T17:26:48.026Z,25.60
2018-08-22T17:29:18.211Z,25.60
2018-08-22T17:34:35.758Z,25.60
2018-08-22T17:37:09.926Z,25.50
2018-08-22T17:39:39.281Z,25.50
2018-08-22T17:42:08.640Z,25.50
2018-08-22T17:44:42.778Z,25.50
2018-08-22T17:47:12.102Z,25.50
2018-08-22T17:49:41.562Z,25.50
2018-08-22T17:52:12.209Z,25.50
2018-08-22T17:54:41.598Z,25.50
2018-08-22T17:57:22.881Z,25.50
2018-08-22T17:59:52.254Z,25.50
2018-08-22T18:02:21.587Z,25.50
2018-08-22T18:05:03.919Z,25.50
2018-08-22T18:07:37.255Z,25.50
2018-08-22T18:10:06.666Z,25.50
2018-08-22T18:12:39.834Z,25.40
2018-08-22T18:15:09.264Z,25.40
2018-08-22T18:17:38.587Z,25.40
2018-08-22T18:20:09.783Z,25.40
2018-08-22T18:22:39.822Z,25.40
2018-08-22T18:25:15.881Z,25.40
2018-08-22T18:27:45.657Z,25.40
2018-08-22T18:30:15.363Z,25.40
2018-08-22T18:32:46.109Z,25.40
2018-08-22T18:35:15.494Z,25.40
2018-08-22T18:37:44.870Z,25.30
2018-08-22T18:40:20.494Z,25.30
2018-08-22T18:42:52.861Z,25.30
2018-08-22T18:45:26.474Z,25.30
2018-08-22T18:47:55.865Z,25.30
2018-08-22T18:50:25.262Z,25.30
2018-08-22T18:52:59.992Z,25.30
2018-08-22T18:55:35.910Z,25.30
2018-08-22T18:58:06.178Z,25.30
2018-08-22T19:00:39.551Z,25.30
2018-08-22T19:03:08.869Z,25.30
2018-08-22T19:05:39.865Z,25.20
2018-08-22T19:08:15.349Z,25.20
2018-08-22T19:10:47.516Z,25.20
2018-08-22T19:13:22.051Z,25.20
2018-08-22T19:15:54.889Z,25.20
2018-08-22T19:18:27.670Z,25.20
2018-08-22T19:20:59.589Z,25.20
2018-08-22T19:23:29.196Z,25.20
2018-08-22T19:26:03.404Z,25.20
2018-08-22T19:28:41.821Z,25.20
2018-08-22T19:31:11.177Z,25.10
2018-08-22T19:33:40.510Z,25.10
2018-08-22T19:36:10.241Z,25.10
2018-08-22T19:38:39.580Z,25.10
2018-08-22T19:41:25.550Z,25.10
2018-08-22T19:43:54.970Z,25.10
2018-08-22T19:46:24.364Z,25.10
2018-08-22T19:48:58.305Z,25.10
2018-08-22T19:51:27.670Z,25.10
2018-08-22T19:54:07.902Z,25.10
2018-08-22T19:56:41.448Z,25.10
2018-08-22T19:59:10.909Z,25.10
2018-08-22T20:01:40.266Z,25.00
2018-08-22T20:04:09.597Z,25.00
2018-08-22T20:06:38.981Z,25.00
2018-08-22T20:09:14.019Z,25.00
2018-08-22T20:11:43.383Z,25.00
2018-08-22T20:14:14.115Z,25.00
2018-08-22T20:16:43.482Z,25.00
2018-08-22T20:19:13.070Z,25.00
2018-08-22T20:21:43.267Z,24.90
2018-08-22T20:24:13.420Z,24.90
2018-08-22T20:26:55.311Z,24.90
2018-08-22T20:29:26.237Z,24.90
2018-08-22T20:31:55.657Z,24.90
2018-08-22T20:34:24.988Z,24.90
2018-08-22T20:36:54.378Z,24.90
2018-08-22T20:39:23.728Z,24.90
2018-08-22T20:41:58.025Z,24.90
2018-08-22T20:44:27.442Z,24.90
2018-08-22T20:47:03.478Z,24.90
2018-08-22T20:49:32.801Z,24.90
2018-08-22T20:52:02.161Z,24.80
2018-08-22T20:54:31.552Z,24.80
2018-08-22T20:57:01.322Z,24.80
2018-08-22T20:59:30.649Z,24.80
2018-08-22T21:02:04.171Z,24.80
2018-08-22T21:04:34.026Z,24.80
2018-08-22T21:07:04.902Z,24.80
2018-08-22T21:09:34.237Z,24.80
2018-08-22T21:12:04.867Z,24.80
2018-08-22T21:14:34.264Z,24.80
2018-08-22T21:17:03.618Z,24.80
2018-08-22T21:19:34.292Z,24.80
2018-08-22T21:22:08.698Z,24.80
2018-08-22T21:24:38.497Z,24.70
2018-08-22T21:27:07.880Z,24.80
2018-08-22T21:29:37.205Z,24.70
2018-08-22T21:32:06.918Z,24.70
2018-08-22T21:34:36.273Z,24.70
2018-08-22T21:37:21.640Z,24.70
2018-08-22T21:39:51.030Z,24.70
2018-08-22T21:42:25.637Z,24.60
2018-08-22T21:44:55.653Z,24.70
2018-08-22T21:47:25.090Z,24.60
2018-08-22T21:49:54.433Z,24.60
2018-08-22T21:52:25.511Z,24.60
2018-08-22T21:54:54.926Z,24.60
2018-08-22T21:57:28.125Z,24.60
2018-08-22T22:00:03.132Z,24.60
2018-08-22T22:02:36.109Z,24.60
2018-08-22T22:05:05.519Z,24.60
2018-08-22T22:07:38.818Z,24.60
2018-08-22T22:10:11.417Z,24.60
2018-08-22T22:12:42.095Z,24.50
2018-08-22T22:15:16.645Z,24.60
2018-08-22T22:17:46.030Z,24.60
2018-08-22T22:20:15.480Z,24.50
2018-08-22T22:22:44.811Z,24.50
2018-08-22T22:25:14.178Z,24.50
2018-08-22T22:27:44.095Z,24.50
2018-08-22T22:30:17.899Z,24.50
2018-08-22T22:32:47.291Z,24.50
2018-08-22T22:35:27.146Z,24.50
2018-08-22T22:38:06.316Z,24.50
2018-08-22T22:40:39.829Z,24.50
2018-08-22T22:43:13.094Z,24.50
2018-08-22T22:45:46.905Z,24.40
2018-08-22T22:48:33.602Z,24.50
2018-08-22T22:51:08.372Z,24.50
2018-08-22T22:53:37.854Z,24.40
2018-08-22T22:56:07.518Z,24.40
2018-08-22T22:58:37.460Z,24.40
2018-08-22T23:01:07.550Z,24.40
2018-08-22T23:03:37.477Z,24.40
2018-08-22T23:06:06.838Z,24.40
2018-08-22T23:08:36.237Z,24.40
2018-08-22T23:11:06.005Z,24.40
2018-08-22T23:13:35.331Z,24.40
2018-08-22T23:16:09.254Z,24.30
2018-08-22T23:18:38.699Z,24.40
2018-08-22T23:21:12.122Z,24.30
2018-08-22T23:23:41.484Z,24.30
2018-08-22T23:26:19.598Z,24.30
2018-08-22T23:28:48.965Z,24.30
2018-08-22T23:31:22.780Z,24.30
2018-08-22T23:33:52.142Z,24.30
2018-08-22T23:36:26.000Z,24.30
2018-08-22T23:38:55.416Z,24.30
2018-08-22T23:41:29.043Z,24.30
2018-08-22T23:43:58.485Z,24.30
2018-08-22T23:46:31.942Z,24.30
2018-08-22T23:49:01.326Z,24.30
2018-08-22T23:51:30.665Z,24.20
2018-08-22T23:54:02.849Z,24.20
2018-08-22T23:56:32.220Z,24.30
2018-08-22T23:59:06.182Z,24.20
